Time;durP1;ratioP1;P1;durP2;ratioP2;P2;SDS_P1;SDS_P2;PMS_P1;PMS_P2;Temp;Humidity;BMP_temperature;BMP_pressure;BME280_temperature;BME280_humidity;BME280_pressure;Samples;Min_cycle;Max_cycle;Signal;HPM_P1;HPM_P2
2023/03/28 00:00:53;;;;;;;1.83;0.50;;;;;;;;;;6145500;23;20025;-86
2023/03/28 00:03:21;;;;;;;1.65;0.40;;;;;;;;;;6119409;23;20018;-86
2023/03/28 00:05:54;;;;;;;;;;;;;;;;;;6145755;23;20108;-86
2023/03/28 00:08:20;;;;;;;1.77;0.40;;;;;;;;;;6145311;23;19928;-86
2023/03/28 00:10:46;;;;;;;2.72;0.50;;;;;;;;;;6145825;23;20025;-86
2023/03/28 00:13:12;;;;;;;2.90;0.88;;;;;;;;;;6120281;23;20017;-86
2023/03/28 00:15:40;;;;;;;1.75;0.40;;;;;;;;;;6119126;23;20017;-86
2023/03/28 00:18:06;;;;;;;1.30;0.30;;;;;;;;;;6119378;23;20014;-86
2023/03/28 00:20:31;;;;;;;1.25;0.40;;;;;;;;;;6145269;23;20037;-86
2023/03/28 00:22:57;;;;;;;1.17;0.40;;;;;;;;;;6119753;23;20371;-86
2023/03/28 00:25:23;;;;;;;1.77;0.50;;;;;;;;;;6145483;23;20027;-86
2023/03/28 00:27:49;;;;;;;3.67;0.90;;;;;;;;;;6145236;23;20021;-86
2023/03/28 00:30:14;;;;;;;2.50;0.50;;;;;;;;;;6145751;23;20039;-85
2023/03/28 00:32:40;;;;;;;1.02;0.40;;;;;;;;;;6118187;23;20013;-87
2023/03/28 00:35:06;;;;;;;0.65;0.32;;;;;;;;;;6145473;23;20351;-86
2023/03/28 00:37:31;;;;;;;3.78;0.77;;;;;;;;;;6117887;23;20059;-87
2023/03/28 00:39:58;;;;;;;1.17;0.60;;;;;;;;;;6118893;23;20017;-86
2023/03/28 00:42:24;;;;;;;0.82;0.40;;;;;;;;;;6145084;23;20025;-86
2023/03/28 00:44:57;;;;;;;2.15;0.38;;;;;;;;;;6118225;23;20028;-85
2023/03/28 00:47:32;;;;;;;0.80;0.40;;;;;;;;;;6118465;23;20160;-85
2023/03/28 00:50:09;;;;;;;3.40;0.60;;;;;;;;;;6088732;23;20392;-85
2023/03/28 00:52:38;;;;;;;;;;;;;;;;;;6092819;23;20475;-86
2023/03/28 00:55:07;;;;;;;0.57;0.35;;;;;;;;;;6143510;23;20398;-86
2023/03/28 00:57:33;;;;;;;1.10;0.35;;;;;;;;;;6120434;23;20439;-87
2023/03/28 00:59:59;;;;;;;0.90;0.45;;;;;;;;;;6146487;23;20052;-86
2023/03/28 01:02:24;;;;;;;1.65;0.50;;;;;;;;;;6147155;23;20478;-86
2023/03/28 01:04:56;;;;;;;3.72;0.65;;;;;;;;;;6096492;23;20053;-86
2023/03/28 01:07:23;;;;;;;1.55;0.70;;;;;;;;;;6121536;23;20025;-86
2023/03/28 01:09:48;;;;;;;1.77;0.40;;;;;;;;;;6122160;23;20013;-86
2023/03/28 01:12:15;;;;;;;2.15;0.30;;;;;;;;;;6096965;23;20040;-86
2023/03/28 01:14:42;;;;;;;1.35;0.40;;;;;;;;;;6148696;23;20526;-87
2023/03/28 01:17:07;;;;;;;2.00;0.55;;;;;;;;;;6146288;23;20068;-87
2023/03/28 01:19:43;;;;;;;1.38;0.43;;;;;;;;;;6121381;23;20092;-85
2023/03/28 01:22:12;;;;;;;0.38;0.30;;;;;;;;;;6096232;23;20017;-87
2023/03/28 01:25:35;;;;;;;1.25;0.40;;;;;;;;;;6148355;23;20035;-86
2023/03/28 01:28:06;;;;;;;1.20;0.40;;;;;;;;;;5975492;23;20063;-86
2023/03/28 01:30:46;;;;;;;1.40;0.40;;;;;;;;;;5998744;23;20070;-86
2023/03/28 01:33:17;;;;;;;1.50;0.80;;;;;;;;;;5976867;23;20075;-85
2023/03/28 01:35:58;;;;;;;3.88;0.60;;;;;;;;;;5998335;23;20023;-86
2023/03/28 01:38:42;;;;;;;1.27;0.50;;;;;;;;;;5999112;23;20466;-87
2023/03/28 01:41:10;;;;;;;1.90;0.70;;;;;;;;;;6000194;23;20058;-87
2023/03/28 01:43:40;;;;;;;3.20;0.60;;;;;;;;;;5999908;23;20095;-87
2023/03/28 01:46:17;;;;;;;3.53;0.77;;;;;;;;;;5952797;23;20030;-86
2023/03/28 01:49:12;;;;;;;1.17;0.50;;;;;;;;;;5964433;23;20027;-84
2023/03/28 01:51:59;;;;;;;1.00;0.50;;;;;;;;;;5975052;23;20020;-85
2023/03/28 01:54:30;;;;;;;;;;;;;;;;;;6000231;23;20114;-86
2023/03/28 01:57:42;;;;;;;1.45;0.60;;;;;;;;;;5999545;23;19981;-86
2023/03/28 02:00:29;;;;;;;1.25;0.52;;;;;;;;;;6021729;23;20153;-85
2023/03/28 02:03:01;;;;;;;2.13;0.60;;;;;;;;;;6119901;23;20148;-86
2023/03/28 02:05:27;;;;;;;1.20;0.60;;;;;;;;;;6120784;23;20359;-85
2023/03/28 02:07:53;;;;;;;2.17;0.73;;;;;;;;;;6120663;23;20027;-85
2023/03/28 02:10:21;;;;;;;1.00;0.50;;;;;;;;;;6120820;23;20332;-87
2023/03/28 02:12:59;;;;;;;3.70;0.90;;;;;;;;;;6096082;23;20521;-85
2023/03/28 02:15:26;;;;;;;3.15;0.88;;;;;;;;;;6120676;23;20356;-87
2023/03/28 02:18:05;;;;;;;1.58;0.60;;;;;;;;;;6121615;23;20123;-85
2023/03/28 02:20:32;;;;;;;2.08;0.75;;;;;;;;;;6146949;23;20448;-85
2023/03/28 02:23:14;;;;;;;5.03;0.80;;;;;;;;;;6145837;23;20171;-86
2023/03/28 02:25:40;;;;;;;1.45;0.47;;;;;;;;;;6095501;23;20153;-85
2023/03/28 02:28:06;;;;;;;1.60;0.75;;;;;;;;;;6119026;23;20487;-85
2023/03/28 02:30:32;;;;;;;1.55;0.40;;;;;;;;;;6121004;23;20021;-85
2023/03/28 02:32:59;;;;;;;2.38;0.70;;;;;;;;;;6118892;23;20044;-86
2023/03/28 02:35:31;;;;;;;1.38;0.50;;;;;;;;;;6096283;23;20021;-85
2023/03/28 02:38:24;;;;;;;2.03;1.00;;;;;;;;;;6096784;23;20025;-86
2023/03/28 02:40:57;;;;;;;1.77;0.70;;;;;;;;;;6120036;23;20025;-84
2023/03/28 02:43:28;;;;;;;1.30;0.55;;;;;;;;;;6121211;23;20815;-85
2023/03/28 02:46:12;;;;;;;0.80;0.50;;;;;;;;;;6120879;23;20029;-85
2023/03/28 02:49:04;;;;;;;2.63;0.88;;;;;;;;;;6146334;23;20029;-85
2023/03/28 02:51:35;;;;;;;1.67;0.60;;;;;;;;;;6138857;23;20017;-86
2023/03/28 02:54:30;;;;;;;1.02;0.63;;;;;;;;;;6090844;23;20089;-85
2023/03/28 02:57:21;;;;;;;1.17;0.60;;;;;;;;;;6110209;23;20028;-85
2023/03/28 03:00:11;;;;;;;1.27;0.50;;;;;;;;;;6120769;23;20017;-85
2023/03/28 03:02:41;;;;;;;3.20;0.63;;;;;;;;;;6120710;23;20013;-85
2023/03/28 03:05:06;;;;;;;2.53;0.82;;;;;;;;;;6119128;23;20541;-83
2023/03/28 03:07:32;;;;;;;2.25;0.73;;;;;;;;;;6119793;23;20100;-85
2023/03/28 03:09:57;;;;;;;1.08;0.50;;;;;;;;;;6095807;23;20020;-86
2023/03/28 03:12:23;;;;;;;3.42;0.70;;;;;;;;;;6119553;23;20021;-86
2023/03/28 03:14:49;;;;;;;1.77;0.50;;;;;;;;;;6146621;23;20021;-84
2023/03/28 03:17:18;;;;;;;1.55;0.70;;;;;;;;;;6095525;23;20018;-78
2023/03/28 03:19:43;;;;;;;3.10;0.73;;;;;;;;;;6145222;23;20076;-79
2023/03/28 03:22:09;;;;;;;4.30;1.02;;;;;;;;;;6095616;23;20014;-78
2023/03/28 03:24:35;;;;;;;6.35;0.80;;;;;;;;;;6094652;23;20048;-79
2023/03/28 03:27:01;;;;;;;3.10;1.25;;;;;;;;;;6119165;23;20471;-79
2023/03/28 03:29:26;;;;;;;2.40;0.73;;;;;;;;;;6119525;23;20064;-79
2023/03/28 03:31:51;;;;;;;1.77;0.80;;;;;;;;;;6118872;23;20593;-79
2023/03/28 03:34:17;;;;;;;2.35;0.68;;;;;;;;;;6119714;23;20483;-79
2023/03/28 03:36:43;;;;;;;1.85;0.60;;;;;;;;;;6145310;23;20014;-79
2023/03/28 03:39:09;;;;;;;1.90;1.00;;;;;;;;;;6146240;23;20020;-80
2023/03/28 03:41:34;;;;;;;1.33;0.47;;;;;;;;;;6119540;23;20499;-78
2023/03/28 03:43:59;;;;;;;2.30;0.63;;;;;;;;;;6119047;23;20024;-78
2023/03/28 03:46:25;;;;;;;1.48;0.70;;;;;;;;;;6145582;23;20018;-79
2023/03/28 03:48:50;;;;;;;3.38;0.77;;;;;;;;;;6144636;23;20084;-79
2023/03/28 03:51:16;;;;;;;2.75;0.82;;;;;;;;;;6119367;23;20018;-78
2023/03/28 03:53:41;;;;;;;2.08;0.98;;;;;;;;;;6145639;23;20013;-78
2023/03/28 03:56:07;;;;;;;1.50;0.60;;;;;;;;;;6144708;23;20014;-81
2023/03/28 03:58:32;;;;;;;1.75;0.77;;;;;;;;;;6119433;23;20124;-80
2023/03/28 04:00:58;;;;;;;3.85;0.77;;;;;;;;;;6144413;23;20026;-79
2023/03/28 04:03:24;;;;;;;1.65;0.70;;;;;;;;;;6119627;23;20017;-80
2023/03/28 04:05:51;;;;;;;3.08;0.73;;;;;;;;;;6094108;23;20428;-79
2023/03/28 04:08:17;;;;;;;5.22;0.77;;;;;;;;;;6145340;23;20060;-80
2023/03/28 04:10:42;;;;;;;1.90;0.73;;;;;;;;;;6144609;23;20454;-80
2023/03/28 04:13:08;;;;;;;6.53;0.80;;;;;;;;;;6146184;23;20126;-80
2023/03/28 04:15:33;;;;;;;4.05;0.70;;;;;;;;;;6145085;23;20424;-79
2023/03/28 04:17:59;;;;;;;3.10;0.50;;;;;;;;;;6119570;23;20029;-82
2023/03/28 04:20:25;;;;;;;2.38;0.75;;;;;;;;;;6120341;23;20014;-80
2023/03/28 04:22:52;;;;;;;5.10;1.20;;;;;;;;;;6097676;23;20021;-81
2023/03/28 04:25:18;;;;;;;5.78;1.00;;;;;;;;;;6151176;23;20021;-82
2023/03/28 04:27:46;;;;;;;2.28;0.85;;;;;;;;;;6154054;23;20017;-82
2023/03/28 04:30:12;;;;;;;3.67;1.10;;;;;;;;;;6155312;23;20089;-82
2023/03/28 04:32:40;;;;;;;2.75;0.77;;;;;;;;;;6128942;23;20021;-82
2023/03/28 04:35:06;;;;;;;1.08;0.60;;;;;;;;;;6155019;23;20036;-81
2023/03/28 04:37:36;;;;;;;2.67;0.55;;;;;;;;;;6131507;23;20093;-81
2023/03/28 04:40:03;;;;;;;2.30;0.80;;;;;;;;;;6127413;23;20562;-81
2023/03/28 04:42:28;;;;;;;2.53;0.70;;;;;;;;;;6124161;23;20459;-82
2023/03/28 04:44:54;;;;;;;3.90;0.73;;;;;;;;;;6128650;23;20269;-81
2023/03/28 04:47:19;;;;;;;2.25;0.65;;;;;;;;;;6156640;23;20036;-81
2023/03/28 04:49:45;;;;;;;2.45;0.70;;;;;;;;;;6131747;23;20384;-80
2023/03/28 04:52:10;;;;;;;2.53;0.80;;;;;;;;;;6159110;23;20083;-82
2023/03/28 04:54:35;;;;;;;2.53;0.68;;;;;;;;;;6099462;23;20134;-79
2023/03/28 04:57:01;;;;;;;1.73;0.80;;;;;;;;;;6147878;23;20024;-78
2023/03/28 04:59:26;;;;;;;1.23;0.60;;;;;;;;;;6097384;23;20025;-79
2023/03/28 05:01:52;;;;;;;3.25;0.65;;;;;;;;;;6147968;23;20048;-79
2023/03/28 05:04:18;;;;;;;5.68;0.70;;;;;;;;;;6122263;23;20028;-78
2023/03/28 05:06:48;;;;;;;1.35;0.60;;;;;;;;;;6121441;23;20407;-79
2023/03/28 05:09:15;;;;;;;4.45;0.70;;;;;;;;;;6098003;23;20029;-79
2023/03/28 05:11:41;;;;;;;1.43;0.50;;;;;;;;;;6147677;23;20447;-79
2023/03/28 05:14:07;;;;;;;3.30;0.80;;;;;;;;;;6147770;23;20759;-79
2023/03/28 05:16:32;;;;;;;3.53;1.40;;;;;;;;;;6147376;23;20087;-81
2023/03/28 05:18:57;;;;;;;3.05;0.73;;;;;;;;;;6148144;23;20021;-82
2023/03/28 05:21:24;;;;;;;1.80;0.63;;;;;;;;;;6122035;23;20072;-83
2023/03/28 05:23:50;;;;;;;1.45;0.63;;;;;;;;;;6097106;23;20463;-82
2023/03/28 05:26:15;;;;;;;1.58;0.75;;;;;;;;;;6097889;23;20041;-83
2023/03/28 05:28:41;;;;;;;2.65;0.70;;;;;;;;;;6123955;23;20017;-84
2023/03/28 05:31:07;;;;;;;2.28;0.85;;;;;;;;;;6098892;23;20025;-84
2023/03/28 05:33:33;;;;;;;2.70;0.80;;;;;;;;;;6122851;23;20013;-84
2023/03/28 05:35:59;;;;;;;3.47;0.80;;;;;;;;;;6149375;23;20024;-84
2023/03/28 05:38:25;;;;;;;2.78;0.80;;;;;;;;;;6123517;23;20024;-85
2023/03/28 05:40:51;;;;;;;1.17;0.65;;;;;;;;;;6147533;23;20056;-84
2023/03/28 05:43:17;;;;;;;2.97;0.93;;;;;;;;;;6121342;23;20016;-84
2023/03/28 05:45:42;;;;;;;2.40;0.75;;;;;;;;;;6110482;23;20021;-84
2023/03/28 05:48:08;;;;;;;3.95;0.70;;;;;;;;;;6121067;23;20037;-81
2023/03/28 05:50:33;;;;;;;2.50;0.90;;;;;;;;;;6120348;23;20068;-81
2023/03/28 05:52:59;;;;;;;2.28;0.60;;;;;;;;;;6146591;23;20028;-81
2023/03/28 05:55:24;;;;;;;1.67;0.60;;;;;;;;;;6118847;23;20017;-82
2023/03/28 05:57:50;;;;;;;2.85;0.90;;;;;;;;;;6120763;23;20467;-81
2023/03/28 06:00:17;;;;;;;2.08;0.70;;;;;;;;;;6146156;23;20332;-82
2023/03/28 06:02:42;;;;;;;2.27;0.60;;;;;;;;;;6096140;23;20013;-81
2023/03/28 06:05:11;;;;;;;5.00;0.80;;;;;;;;;;6119659;23;20028;-81
2023/03/28 06:07:37;;;;;;;2.42;0.85;;;;;;;;;;6120493;23;20105;-80
2023/03/28 06:10:04;;;;;;;2.63;0.60;;;;;;;;;;6096477;23;20026;-86
2023/03/28 06:12:30;;;;;;;2.55;0.68;;;;;;;;;;6120500;23;20021;-84
2023/03/28 06:14:55;;;;;;;3.83;0.95;;;;;;;;;;6094739;23;20045;-84
2023/03/28 06:17:21;;;;;;;3.47;0.98;;;;;;;;;;6145490;23;20033;-85
2023/03/28 06:19:46;;;;;;;1.73;0.70;;;;;;;;;;6120743;23;20490;-81
2023/03/28 06:22:12;;;;;;;2.90;0.75;;;;;;;;;;6096156;23;20526;-81
2023/03/28 06:24:37;;;;;;;2.55;0.70;;;;;;;;;;6095369;23;20032;-81
2023/03/28 06:27:03;;;;;;;1.77;0.73;;;;;;;;;;6146360;23;20072;-81
2023/03/28 06:29:28;;;;;;;1.48;0.55;;;;;;;;;;6119834;23;20711;-81
2023/03/28 06:31:54;;;;;;;3.20;1.13;;;;;;;;;;6094617;23;20414;-81
2023/03/28 06:34:20;;;;;;;1.77;0.70;;;;;;;;;;6120029;23;20547;-81
2023/03/28 06:36:45;;;;;;;2.83;0.82;;;;;;;;;;6119182;23;20024;-80
2023/03/28 06:39:11;;;;;;;2.35;0.85;;;;;;;;;;6120709;23;20459;-80
2023/03/28 06:41:37;;;;;;;1.50;0.63;;;;;;;;;;6095384;23;20033;-81
2023/03/28 06:44:02;;;;;;;3.50;0.73;;;;;;;;;;6095657;23;20340;-81
2023/03/28 06:46:28;;;;;;;3.53;0.80;;;;;;;;;;6095217;23;20455;-80
2023/03/28 06:48:53;;;;;;;3.28;0.63;;;;;;;;;;6118968;23;20096;-80
2023/03/28 06:51:19;;;;;;;2.67;0.63;;;;;;;;;;6145648;23;20014;-81
2023/03/28 06:53:44;;;;;;;2.47;0.70;;;;;;;;;;6120007;23;20033;-80
2023/03/28 06:56:11;;;;;;;2.35;0.75;;;;;;;;;;6120004;23;20056;-80
2023/03/28 06:58:36;;;;;;;1.80;0.60;;;;;;;;;;6095279;23;20352;-80
2023/03/28 07:01:02;;;;;;;2.22;0.75;;;;;;;;;;6144985;23;20014;-80
2023/03/28 07:03:28;;;;;;;3.67;0.80;;;;;;;;;;6120430;23;20020;-80
2023/03/28 07:05:54;;;;;;;2.42;0.60;;;;;;;;;;6119077;23;20014;-80
2023/03/28 07:08:20;;;;;;;2.13;0.63;;;;;;;;;;6119938;23;20085;-80
2023/03/28 07:10:45;;;;;;;1.52;0.60;;;;;;;;;;6119779;23;20017;-81
2023/03/28 07:13:11;;;;;;;2.70;0.73;;;;;;;;;;6095352;23;20025;-80
2023/03/28 07:15:36;;;;;;;4.03;0.70;;;;;;;;;;6119664;23;20021;-80
2023/03/28 07:18:02;;;;;;;2.50;0.57;;;;;;;;;;6118140;23;20017;-81
2023/03/28 07:20:28;;;;;;;1.88;0.60;;;;;;;;;;6118663;23;20017;-81
2023/03/28 07:22:53;;;;;;;3.92;0.70;;;;;;;;;;6117576;23;20062;-81
2023/03/28 07:25:19;;;;;;;4.28;0.77;;;;;;;;;;6094038;23;20017;-79
2023/03/28 07:27:44;;;;;;;1.10;0.50;;;;;;;;;;6145453;23;20408;-80
2023/03/28 07:30:10;;;;;;;1.73;0.52;;;;;;;;;;6120054;23;20463;-80
2023/03/28 07:32:36;;;;;;;2.03;0.60;;;;;;;;;;6094202;23;20432;-81
2023/03/28 07:35:06;;;;;;;2.20;0.52;;;;;;;;;;6095242;23;20100;-80
2023/03/28 07:37:34;;;;;;;1.98;0.60;;;;;;;;;;6119103;23;20023;-81
2023/03/28 07:39:59;;;;;;;1.98;0.60;;;;;;;;;;6095140;23;20017;-80
2023/03/28 07:42:26;;;;;;;1.40;0.65;;;;;;;;;;6093886;23;20048;-80
2023/03/28 07:44:53;;;;;;;3.33;0.60;;;;;;;;;;6119144;23;20033;-80
2023/03/28 07:47:18;;;;;;;2.38;0.60;;;;;;;;;;6094362;23;20525;-80
2023/03/28 07:49:44;;;;;;;1.05;0.40;;;;;;;;;;6119175;23;20498;-80
2023/03/28 07:52:10;;;;;;;2.03;0.73;;;;;;;;;;6145621;23;20080;-81
2023/03/28 07:54:36;;;;;;;1.73;0.60;;;;;;;;;;6094385;23;20383;-80
2023/03/28 07:57:02;;;;;;;3.10;0.80;;;;;;;;;;6117433;23;20091;-80
2023/03/28 07:59:28;;;;;;;1.80;0.55;;;;;;;;;;6119390;23;20474;-80
2023/03/28 08:01:53;;;;;;;1.33;0.50;;;;;;;;;;6118710;23;20386;-81
2023/03/28 08:04:19;;;;;;;1.58;0.57;;;;;;;;;;6143492;23;20017;-80
2023/03/28 08:06:44;;;;;;;1.52;0.47;;;;;;;;;;6093204;23;20021;-80
2023/03/28 08:09:12;;;;;;;2.03;0.80;;;;;;;;;;6094947;23;20156;-82
2023/03/28 08:11:38;;;;;;;;;;;;;;;;;;6094650;23;20516;-80
2023/03/28 08:14:05;;;;;;;2.25;0.52;;;;;;;;;;6168873;23;19916;-81
2023/03/28 08:16:31;;;;;;;1.50;0.60;;;;;;;;;;6070583;23;20019;-80
2023/03/28 08:18:57;;;;;;;1.20;0.40;;;;;;;;;;6144146;23;20465;-80
2023/03/28 08:21:26;;;;;;;2.28;0.70;;;;;;;;;;6118445;23;20032;-80
2023/03/28 08:23:51;;;;;;;2.22;0.50;;;;;;;;;;6144198;23;20013;-80
2023/03/28 08:26:17;;;;;;;1.42;0.57;;;;;;;;;;6093888;23;20021;-80
2023/03/28 08:28:42;;;;;;;5.32;0.75;;;;;;;;;;6119431;23;20068;-79
2023/03/28 08:31:14;;;;;;;2.83;0.50;;;;;;;;;;6144145;23;20028;-79
2023/03/28 08:33:41;;;;;;;2.72;0.60;;;;;;;;;;6144757;23;20025;-80
2023/03/28 08:36:13;;;;;;;2.72;0.57;;;;;;;;;;6118395;23;20459;-79
2023/03/28 08:38:43;;;;;;;2.15;0.60;;;;;;;;;;6095477;23;20343;-79
2023/03/28 08:41:15;;;;;;;0.73;0.32;;;;;;;;;;6118537;23;20026;-79
2023/03/28 08:44:02;;;;;;;3.00;1.02;;;;;;;;;;6145022;23;20052;-79
2023/03/28 08:46:28;;;;;;;3.30;0.50;;;;;;;;;;6144919;23;20032;-80
2023/03/28 08:48:54;;;;;;;1.42;0.43;;;;;;;;;;6118510;23;20032;-80
2023/03/28 08:51:39;;;;;;;1.08;0.40;;;;;;;;;;6117524;23;20398;-79
2023/03/28 08:54:15;;;;;;;0.80;0.40;;;;;;;;;;6095129;23;20093;-79
2023/03/28 08:56:54;;;;;;;0.65;0.30;;;;;;;;;;6094947;23;20025;-79
2023/03/28 08:59:34;;;;;;;0.63;0.20;;;;;;;;;;6144469;23;20444;-79
2023/03/28 09:02:00;;;;;;;0.50;0.28;;;;;;;;;;6118569;23;20084;-79
2023/03/28 09:04:33;;;;;;;0.93;0.30;;;;;;;;;;6118191;23;20343;-79
2023/03/28 09:07:26;;;;;;;1.23;0.30;;;;;;;;;;6118460;23;20097;-80
2023/03/28 09:10:01;;;;;;;1.05;0.30;;;;;;;;;;6144618;23;20024;-80
2023/03/28 09:12:50;;;;;;;0.77;0.30;;;;;;;;;;6144040;23;20376;-80
2023/03/28 09:15:37;;;;;;;1.60;0.30;;;;;;;;;;6093288;23;20088;-79
2023/03/28 09:18:06;;;;;;;1.05;0.40;;;;;;;;;;6120328;23;20021;-80
2023/03/28 09:20:51;;;;;;;0.22;0.20;;;;;;;;;;6095281;23;20486;-80
2023/03/28 09:23:36;;;;;;;2.58;0.40;;;;;;;;;;6121336;23;20014;-80
2023/03/28 09:26:08;;;;;;;0.40;0.20;;;;;;;;;;6095905;23;20096;-80
2023/03/28 09:28:52;;;;;;;0.30;0.20;;;;;;;;;;6120207;23;20014;-80
2023/03/28 09:31:19;;;;;;;0.40;0.20;;;;;;;;;;6120780;23;20028;-80
2023/03/28 09:33:48;;;;;;;0.70;0.20;;;;;;;;;;6120518;23;20044;-79
2023/03/28 09:36:21;;;;;;;1.92;0.60;;;;;;;;;;6097110;23;20021;-79
2023/03/28 09:38:50;;;;;;;2.22;0.30;;;;;;;;;;6119851;23;20025;-80
2023/03/28 09:41:22;;;;;;;1.65;0.20;;;;;;;;;;6119742;23;20471;-79
2023/03/28 09:43:53;;;;;;;1.25;0.40;;;;;;;;;;6096465;23;20044;-79
2023/03/28 09:46:31;;;;;;;2.45;0.30;;;;;;;;;;6120502;23;20439;-79
2023/03/28 09:48:57;;;;;;;0.35;0.35;;;;;;;;;;6120092;23;20025;-80
2023/03/28 09:51:23;;;;;;;0.73;0.30;;;;;;;;;;6119898;23;20435;-79
2023/03/28 09:53:48;;;;;;;0.80;0.30;;;;;;;;;;6119733;23;20121;-79
2023/03/28 09:56:20;;;;;;;0.55;0.25;;;;;;;;;;6146892;23;20037;-80
2023/03/28 09:58:48;;;;;;;1.13;0.40;;;;;;;;;;6120009;23;20359;-79
2023/03/28 10:01:24;;;;;;;1.05;0.38;;;;;;;;;;6120425;23;20028;-79
2023/03/28 10:03:55;;;;;;;0.70;0.30;;;;;;;;;;6144421;23;20022;-79
2023/03/28 10:06:45;;;;;;;1.58;0.30;;;;;;;;;;6145507;23;20045;-79
2023/03/28 10:09:21;;;;;;;0.57;0.30;;;;;;;;;;6031011;23;20038;-79
2023/03/28 10:11:56;;;;;;;0.80;0.30;;;;;;;;;;6054887;23;20026;-79
2023/03/28 10:14:40;;;;;;;0.50;0.30;;;;;;;;;;6051488;23;20019;-79
2023/03/28 10:17:15;;;;;;;1.23;0.30;;;;;;;;;;6054703;23;20047;-80
2023/03/28 10:19:45;;;;;;;0.47;0.32;;;;;;;;;;6031326;23;20193;-80
2023/03/28 10:22:19;;;;;;;0.85;0.30;;;;;;;;;;6055801;23;20015;-79
2023/03/28 10:24:46;;;;;;;0.73;0.30;;;;;;;;;;6031147;23;20512;-80
2023/03/28 10:27:15;;;;;;;1.63;0.40;;;;;;;;;;6055575;23;20616;-79
2023/03/28 10:29:41;;;;;;;6.25;0.68;;;;;;;;;;6055440;23;20023;-79
2023/03/28 10:32:11;;;;;;;0.80;0.35;;;;;;;;;;6070974;23;20113;-79
2023/03/28 10:34:36;;;;;;;0.50;0.20;;;;;;;;;;6079795;23;20023;-79
2023/03/28 10:37:01;;;;;;;0.73;0.30;;;;;;;;;;6055566;23;20038;-79
2023/03/28 10:39:29;;;;;;;0.95;0.30;;;;;;;;;;6055482;23;20469;-80
2023/03/28 10:41:59;;;;;;;0.68;0.22;;;;;;;;;;6054534;23;20026;-80
2023/03/28 10:44:34;;;;;;;1.00;0.35;;;;;;;;;;6055294;23;20038;-80
2023/03/28 10:47:04;;;;;;;0.93;0.32;;;;;;;;;;6109670;23;20021;-80
2023/03/28 10:49:39;;;;;;;0.25;0.20;;;;;;;;;;6071686;23;20444;-79
2023/03/28 10:52:19;;;;;;;0.63;0.20;;;;;;;;;;6119407;23;20435;-80
2023/03/28 10:55:01;;;;;;;0.43;0.10;;;;;;;;;;6094240;23;20037;-80
2023/03/28 10:57:32;;;;;;;0.32;0.10;;;;;;;;;;6118875;23;20718;-79
2023/03/28 11:00:20;;;;;;;0.43;0.15;;;;;;;;;;6118778;23;20025;-80
2023/03/28 11:03:10;;;;;;;0.77;0.20;;;;;;;;;;6118896;23;20048;-80
2023/03/28 11:05:57;;;;;;;2.03;0.30;;;;;;;;;;6143974;23;20024;-80
2023/03/28 11:08:23;;;;;;;;;;;;;;;;;;6118750;23;20017;-80
2023/03/28 11:11:28;;;;;;;0.33;0.20;;;;;;;;;;6144121;23;19967;-80
2023/03/28 11:14:03;;;;;;;1.05;0.32;;;;;;;;;;6109581;23;20021;-80
2023/03/28 11:16:44;;;;;;;1.52;0.40;;;;;;;;;;6118402;23;20040;-80
2023/03/28 11:19:37;;;;;;;0.98;0.30;;;;;;;;;;6118520;23;20025;-80
2023/03/28 11:22:42;;;;;;;0.60;0.30;;;;;;;;;;6117664;23;20021;-80
2023/03/28 11:25:30;;;;;;;1.20;0.30;;;;;;;;;;6111747;23;20103;-79
2023/03/28 11:28:17;;;;;;;0.75;0.20;;;;;;;;;;6142694;23;20029;-79
2023/03/28 11:30:45;;;;;;;0.25;0.20;;;;;;;;;;6117273;23;20116;-79
2023/03/28 11:33:17;;;;;;;1.35;0.20;;;;;;;;;;6118112;23;20515;-79
2023/03/28 11:35:57;;;;;;;1.23;0.30;;;;;;;;;;6117995;23;20021;-79
2023/03/28 11:38:34;;;;;;;0.85;0.30;;;;;;;;;;6143270;23;20017;-79
2023/03/28 11:41:02;;;;;;;;;;;;;;;;;;6118987;23;20024;-79
2023/03/28 11:44:13;;;;;;;0.77;0.20;;;;;;;;;;6144657;23;20420;-79
2023/03/28 11:46:44;;;;;;;0.90;0.28;;;;;;;;;;6083337;23;20049;-79
2023/03/28 11:49:31;;;;;;;1.75;0.30;;;;;;;;;;6094266;23;20022;-79
2023/03/28 11:52:09;;;;;;;0.90;0.30;;;;;;;;;;6093141;23;20052;-79
2023/03/28 11:55:09;;;;;;;0.80;0.30;;;;;;;;;;6119450;23;20407;-79
2023/03/28 11:57:45;;;;;;;0.88;0.20;;;;;;;;;;6142956;23;20435;-79
2023/03/28 12:00:23;;;;;;;1.27;0.47;;;;;;;;;;6119275;23;20017;-79
2023/03/28 12:02:55;;;;;;;1.17;0.30;;;;;;;;;;6144130;23;20088;-79
2023/03/28 12:05:33;;;;;;;1.13;0.43;;;;;;;;;;6093346;23;20025;-79
2023/03/28 12:08:15;;;;;;;1.27;0.30;;;;;;;;;;6119394;23;20017;-79
2023/03/28 12:10:47;;;;;;;2.47;0.30;;;;;;;;;;6094785;23;20510;-78
2023/03/28 12:13:36;;;;;;;1.17;0.30;;;;;;;;;;6094962;23;20641;-78
2023/03/28 12:16:05;;;;;;;0.57;0.28;;;;;;;;;;6118198;23;20021;-78
2023/03/28 12:18:35;;;;;;;0.77;0.20;;;;;;;;;;6144600;23;20088;-80
2023/03/28 12:21:21;;;;;;;1.65;0.30;;;;;;;;;;6118441;23;20035;-80
2023/03/28 12:24:12;;;;;;;0.85;0.40;;;;;;;;;;6117872;23;20044;-79
2023/03/28 12:26:59;;;;;;;2.03;0.50;;;;;;;;;;6118068;23;20014;-80
2023/03/28 12:29:46;;;;;;;0.65;0.30;;;;;;;;;;6119164;23;20356;-79
2023/03/28 12:32:18;;;;;;;;;;;;;;;;;;6119643;23;20017;-80
2023/03/28 12:34:49;;;;;;;0.55;0.30;;;;;;;;;;6145209;23;19919;-79
2023/03/28 12:37:22;;;;;;;1.10;0.30;;;;;;;;;;6118990;23;20014;-79
2023/03/28 12:39:54;;;;;;;0.38;0.20;;;;;;;;;;6143609;23;20732;-79
2023/03/28 12:42:20;;;;;;;0.30;0.20;;;;;;;;;;6118368;23;20448;-79
2023/03/28 12:45:04;;;;;;;0.90;0.30;;;;;;;;;;6093430;23;20347;-79
2023/03/28 12:47:40;;;;;;;0.47;0.32;;;;;;;;;;6094173;23;20059;-79
2023/03/28 12:50:20;;;;;;;1.13;0.30;;;;;;;;;;6118857;23;20029;-79
2023/03/28 12:52:46;;;;;;;1.02;0.35;;;;;;;;;;6120002;23;20502;-81
2023/03/28 12:55:23;;;;;;;1.83;0.55;;;;;;;;;;6146666;23;20048;-81
2023/03/28 12:57:49;;;;;;;;;;;;;;;;;;6121085;23;20021;-81
2023/03/28 13:00:27;;;;;;;0.30;0.20;;;;;;;;;;6120967;23;19913;-81
2023/03/28 13:03:15;;;;;;;1.35;0.50;;;;;;;;;;6121387;23;20533;-81
2023/03/28 13:05:42;;;;;;;;;;;;;;;;;;6147322;23;20029;-81
2023/03/28 13:08:15;;;;;;;0.77;0.38;;;;;;;;;;6146139;23;19983;-81
2023/03/28 13:10:45;;;;;;;0.80;0.25;;;;;;;;;;6121085;23;20076;-82
2023/03/28 13:13:13;;;;;;;1.05;0.43;;;;;;;;;;6147418;23;20014;-81
2023/03/28 13:15:54;;;;;;;0.68;0.30;;;;;;;;;;6120494;23;20041;-81
2023/03/28 13:18:40;;;;;;;1.08;0.38;;;;;;;;;;6120441;23;20017;-81
2023/03/28 13:21:06;;;;;;;1.30;0.25;;;;;;;;;;6030593;23;20487;-81
2023/03/28 13:23:35;;;;;;;0.98;0.32;;;;;;;;;;6031972;23;20019;-81
2023/03/28 13:26:04;;;;;;;1.90;0.32;;;;;;;;;;6031547;23;20026;-82
2023/03/28 13:28:37;;;;;;;0.82;0.40;;;;;;;;;;6031505;23;20500;-82
2023/03/28 13:31:23;;;;;;;0.70;0.30;;;;;;;;;;6032678;23;20015;-82
2023/03/28 13:34:00;;;;;;;1.30;0.40;;;;;;;;;;6055627;23;20023;-81
2023/03/28 13:36:31;;;;;;;0.75;0.30;;;;;;;;;;5999826;23;20019;-80
2023/03/28 13:39:06;;;;;;;1.83;0.50;;;;;;;;;;6018275;23;20031;-80
2023/03/28 13:41:36;;;;;;;1.20;0.40;;;;;;;;;;6023904;23;20098;-80
2023/03/28 13:44:27;;;;;;;1.23;0.50;;;;;;;;;;6003474;23;20365;-80
2023/03/28 13:46:53;;;;;;;0.50;0.30;;;;;;;;;;6045094;23;20022;-80
2023/03/28 13:49:20;;;;;;;1.13;0.40;;;;;;;;;;6008292;23;20019;-80
2023/03/28 13:52:17;;;;;;;0.40;0.30;;;;;;;;;;6026062;23;20020;-80
2023/03/28 13:54:44;;;;;;;;;;;;;;;;;;6033060;23;20084;-80
2023/03/28 13:57:17;;;;;;;0.55;0.30;;;;;;;;;;6061194;23;19913;-80
2023/03/28 14:00:05;;;;;;;1.02;0.32;;;;;;;;;;6120074;23;20714;-80
2023/03/28 14:02:35;;;;;;;1.27;0.30;;;;;;;;;;6143419;23;20089;-80
2023/03/28 14:05:10;;;;;;;1.10;0.50;;;;;;;;;;6119784;23;20026;-80
2023/03/28 14:07:36;;;;;;;0.52;0.30;;;;;;;;;;6145737;23;20021;-80
2023/03/28 14:10:01;;;;;;;0.98;0.40;;;;;;;;;;6095828;23;20013;-80
2023/03/28 14:12:28;;;;;;;1.13;0.40;;;;;;;;;;6120058;23;20111;-80
2023/03/28 14:14:55;;;;;;;1.10;0.40;;;;;;;;;;6095152;23;20076;-80
2023/03/28 14:17:26;;;;;;;1.15;0.38;;;;;;;;;;6119684;23;20018;-81
2023/03/28 14:20:00;;;;;;;1.38;0.30;;;;;;;;;;6094954;23;20025;-81
2023/03/28 14:22:30;;;;;;;1.10;0.40;;;;;;;;;;6119718;23;20021;-80
2023/03/28 14:25:01;;;;;;;0.70;0.32;;;;;;;;;;6119625;23;20372;-80
2023/03/28 14:27:35;;;;;;;1.23;0.32;;;;;;;;;;6095303;23;20020;-80
2023/03/28 14:30:01;;;;;;;0.65;0.30;;;;;;;;;;6120187;23;20032;-80
2023/03/28 14:32:32;;;;;;;1.17;0.40;;;;;;;;;;6119481;23;20402;-80
2023/03/28 14:35:17;;;;;;;1.05;0.40;;;;;;;;;;6096244;23;20068;-79
2023/03/28 14:37:51;;;;;;;0.73;0.30;;;;;;;;;;6120243;23;20021;-80
2023/03/28 14:40:23;;;;;;;1.73;0.30;;;;;;;;;;6119382;23;20017;-80
2023/03/28 14:42:53;;;;;;;0.80;0.40;;;;;;;;;;6119676;23;20026;-80
2023/03/28 14:45:18;;;;;;;1.33;0.50;;;;;;;;;;6119041;23;20084;-79
2023/03/28 14:47:43;;;;;;;1.98;0.50;;;;;;;;;;6120683;23;20180;-80
2023/03/28 14:50:14;;;;;;;1.60;0.40;;;;;;;;;;6118739;23;20017;-80
2023/03/28 14:52:42;;;;;;;2.05;0.40;;;;;;;;;;6145665;23;20096;-79
2023/03/28 14:55:14;;;;;;;1.73;0.30;;;;;;;;;;6119272;23;20025;-80
2023/03/28 14:57:40;;;;;;;1.92;0.40;;;;;;;;;;6120142;23;20013;-80
2023/03/28 15:00:11;;;;;;;2.13;0.50;;;;;;;;;;6145629;23;20134;-78
2023/03/28 15:02:40;;;;;;;0.90;0.32;;;;;;;;;;6095627;23;20381;-79
2023/03/28 15:05:08;;;;;;;1.67;0.40;;;;;;;;;;6120030;23;20447;-81
2023/03/28 15:07:35;;;;;;;2.10;0.50;;;;;;;;;;6118720;23;20459;-84
2023/03/28 15:10:19;;;;;;;2.60;0.80;;;;;;;;;;6095688;23;20041;-84